KLM681 EHAM-CYVR
Flight info
| Callsign | KLM681 |
|---|---|
| Flight time | N/A |
| Altitude | 35000 |
| Route | ANDIK Z733 KONOM DCT SUTEB/N0478F340 DCT KARLI DCT ALLOY DCT IPTON/M083F340 DCT 65N020W/M083F360 65N030W 66N040W 67N050W DCT EPMAN/N0488F380 DCT YZS DCT YMM/N0469F400 DCT YZU DCT NADPI DCT MERYT DCT BOOTH CANUC6 |
| Aircraft | MD11/H-SDE1E2E3FGHIJ2J3J4J5M1RWXY/LB1D1 |
Departure
| Time | N/A |
|---|---|
| Airport | Amsterdam Airport Schiphol (EHAM) |
Arrival
| Time | 2026-04-30 19:54 |
|---|---|
| Airport | Vancouver International Airport (CYVR) |
| Time | Latitude | Longitude | Altitude | Speed | Heading |
|---|---|---|---|---|---|
| 2026-04-30 14:29 | 66.90279 | -48.61935 | 34628 ft | 443 kts | 280° |
| 2026-04-30 14:31 | 66.93297 | -49.02915 | 34615 ft | 442 kts | 280° |
| 2026-04-30 14:31 | 66.94951 | -49.26084 | 34615 ft | 442 kts | 279° |
| 2026-04-30 14:32 | 66.96571 | -49.49266 | 34583 ft | 442 kts | 279° |
| 2026-04-30 14:33 | 66.97632 | -49.64743 | 34577 ft | 442 kts | 279° |
| 2026-04-30 14:33 | 66.99195 | -49.87968 | 34573 ft | 442 kts | 279° |
| 2026-04-30 14:34 | 66.99722 | -50.03597 | 34560 ft | 442 kts | 267° |
| 2026-04-30 14:34 | 66.98836 | -50.19185 | 34566 ft | 444 kts | 261° |
| 2026-04-30 14:35 | 66.97098 | -50.42285 | 34556 ft | 442 kts | 261° |
| 2026-04-30 14:36 | 66.96018 | -50.57744 | 34550 ft | 442 kts | 261° |
| 2026-04-30 14:36 | 66.94958 | -50.73201 | 34526 ft | 442 kts | 261° |
| 2026-04-30 14:37 | 66.93887 | -50.88658 | 34527 ft | 442 kts | 261° |
| 2026-04-30 14:37 | 66.92798 | -51.04130 | 34530 ft | 442 kts | 261° |
| 2026-04-30 14:38 | 66.91695 | -51.19546 | 34535 ft | 442 kts | 261° |
| 2026-04-30 14:38 | 66.90577 | -51.34956 | 34548 ft | 443 kts | 261° |
| 2026-04-30 14:39 | 66.89449 | -51.50271 | 34527 ft | 442 kts | 260° |
| 2026-04-30 14:39 | 66.88301 | -51.65649 | 34537 ft | 442 kts | 260° |
| 2026-04-30 14:40 | 66.86550 | -51.88696 | 34549 ft | 442 kts | 260° |
| 2026-04-30 14:40 | 66.85566 | -52.01445 | 34549 ft | 442 kts | 260° |
| 2026-04-30 14:41 | 66.84335 | -52.16752 | 34545 ft | 442 kts | 259° |
| 2026-04-30 14:41 | 66.83036 | -52.32050 | 34546 ft | 442 kts | 259° |
| 2026-04-30 14:42 | 66.81774 | -52.47324 | 34551 ft | 442 kts | 259° |
| 2026-04-30 14:42 | 66.80526 | -52.62605 | 34544 ft | 442 kts | 259° |
| 2026-04-30 14:43 | 66.79270 | -52.77886 | 34543 ft | 443 kts | 259° |
| 2026-04-30 14:43 | 66.77998 | -52.93161 | 34550 ft | 443 kts | 259° |
| 2026-04-30 14:44 | 66.76717 | -53.08329 | 34545 ft | 443 kts | 259° |
| 2026-04-30 14:44 | 66.75414 | -53.23578 | 34544 ft | 443 kts | 259° |
| 2026-04-30 14:45 | 66.74095 | -53.38813 | 34546 ft | 443 kts | 258° |
| 2026-04-30 14:45 | 66.72762 | -53.54026 | 34544 ft | 443 kts | 258° |
| 2026-04-30 14:46 | 66.71415 | -53.69219 | 34521 ft | 443 kts | 258° |
| 2026-04-30 14:46 | 66.70053 | -53.84402 | 34546 ft | 443 kts | 258° |
| 2026-04-30 14:47 | 66.68676 | -53.99565 | 34568 ft | 443 kts | 258° |
| 2026-04-30 14:47 | 66.67281 | -54.14737 | 34556 ft | 444 kts | 257° |
| 2026-04-30 14:48 | 66.65794 | -54.29848 | 34549 ft | 444 kts | 257° |
| 2026-04-30 14:48 | 66.64311 | -54.44961 | 34549 ft | 444 kts | 257° |
| 2026-04-30 14:49 | 66.62859 | -54.60064 | 34561 ft | 444 kts | 257° |
| 2026-04-30 14:49 | 66.61407 | -54.75161 | 34559 ft | 444 kts | 257° |
| 2026-04-30 14:50 | 66.59202 | -54.97802 | 34557 ft | 444 kts | 257° |
| 2026-04-30 14:51 | 66.56961 | -55.20411 | 34577 ft | 444 kts | 257° |
| 2026-04-30 14:52 | 66.54699 | -55.42873 | 34573 ft | 444 kts | 256° |
| 2026-04-30 14:52 | 66.52393 | -55.65399 | 34575 ft | 444 kts | 256° |
| 2026-04-30 14:53 | 66.50057 | -55.87870 | 34582 ft | 444 kts | 256° |
| 2026-04-30 14:54 | 66.46884 | -56.17800 | 34592 ft | 444 kts | 255° |
| 2026-04-30 14:55 | 66.44358 | -56.40105 | 34582 ft | 444 kts | 255° |
| 2026-04-30 14:56 | 66.41064 | -56.69788 | 34612 ft | 445 kts | 255° |
| 2026-04-30 14:57 | 66.38577 | -56.92077 | 34599 ft | 445 kts | 255° |
| 2026-04-30 14:58 | 66.35209 | -57.21744 | 34605 ft | 444 kts | 255° |
| 2026-04-30 14:58 | 66.32646 | -57.43933 | 34609 ft | 445 kts | 254° |
| 2026-04-30 15:00 | 66.28313 | -57.80731 | 34623 ft | 444 kts | 254° |
| 2026-04-30 15:01 | 66.24780 | -58.10124 | 34614 ft | 444 kts | 253° |
| 2026-04-30 15:01 | 66.22007 | -58.32059 | 34618 ft | 444 kts | 252° |
| 2026-04-30 15:02 | 66.20148 | -58.46655 | 34623 ft | 444 kts | 253° |
| 2026-04-30 15:03 | 66.15553 | -58.83154 | 34626 ft | 444 kts | 253° |
| 2026-04-30 15:04 | 66.10896 | -59.19446 | 34622 ft | 445 kts | 252° |
| 2026-04-30 15:06 | 66.06140 | -59.55689 | 34639 ft | 444 kts | 252° |
| 2026-04-30 15:07 | 66.02280 | -59.84545 | 34642 ft | 444 kts | 252° |
| 2026-04-30 15:08 | 65.99460 | -60.13807 | 34635 ft | 445 kts | 268° |
| 2026-04-30 15:09 | 65.99698 | -60.51888 | 34629 ft | 446 kts | 268° |
| 2026-04-30 15:10 | 65.99625 | -60.82380 | 34629 ft | 446 kts | 268° |
| 2026-04-30 15:11 | 65.99377 | -61.28030 | 34642 ft | 446 kts | 267° |
| 2026-04-30 15:13 | 65.99069 | -61.66126 | 34633 ft | 447 kts | 267° |
| 2026-04-30 15:14 | 65.98396 | -62.19490 | 34626 ft | 447 kts | 266° |
| 2026-04-30 15:17 | 65.97294 | -62.87973 | 34619 ft | 447 kts | 266° |
| 2026-04-30 15:19 | 65.96121 | -63.48912 | 34625 ft | 447 kts | 265° |
| 2026-04-30 17:39 | 60.14720 | -102.11805 | 37764 ft | 491 kts | 243° |
| 2026-04-30 17:42 | 59.96272 | -102.69276 | 37760 ft | 492 kts | 242° |
| 2026-04-30 17:43 | 59.86907 | -102.97815 | 37756 ft | 492 kts | 241° |
| 2026-04-30 17:44 | 59.75565 | -103.31762 | 37749 ft | 493 kts | 242° |
| 2026-04-30 17:47 | 59.58418 | -103.82583 | 37718 ft | 494 kts | 242° |
| 2026-04-30 17:48 | 59.44934 | -104.21772 | 37716 ft | 494 kts | 241° |
| 2026-04-30 17:49 | 59.37146 | -104.43835 | 38426 ft | 484 kts | 240° |
| 2026-04-30 17:50 | 59.29530 | -104.65372 | 39640 ft | 480 kts | 240° |
| 2026-04-30 17:52 | 59.18084 | -104.97587 | 39677 ft | 480 kts | 240° |
| 2026-04-30 17:54 | 59.00812 | -105.45303 | 39643 ft | 480 kts | 239° |
| 2026-04-30 17:56 | 58.85854 | -105.85546 | 39678 ft | 480 kts | 239° |
| 2026-04-30 17:58 | 58.74160 | -106.16775 | 39675 ft | 479 kts | 239° |
| 2026-04-30 18:00 | 58.58446 | -106.58100 | 39664 ft | 478 kts | 239° |
| 2026-04-30 18:01 | 58.48609 | -106.83612 | 39671 ft | 478 kts | 239° |
| 2026-04-30 18:02 | 58.36602 | -107.14085 | 39659 ft | 478 kts | 238° |
| 2026-04-30 18:04 | 58.24635 | -107.44362 | 39671 ft | 478 kts | 238° |
| 2026-04-30 18:06 | 58.08591 | -107.84353 | 39679 ft | 476 kts | 238° |
| 2026-04-30 18:08 | 57.94445 | -108.19021 | 39679 ft | 478 kts | 237° |
| 2026-04-30 18:10 | 57.78054 | -108.58383 | 39682 ft | 476 kts | 237° |
| 2026-04-30 18:11 | 57.63761 | -108.92386 | 39660 ft | 476 kts | 237° |
| 2026-04-30 18:13 | 57.53493 | -109.16513 | 39653 ft | 475 kts | 237° |
| 2026-04-30 18:14 | 57.43179 | -109.40470 | 39649 ft | 474 kts | 236° |
| 2026-04-30 18:15 | 57.30740 | -109.68859 | 39640 ft | 472 kts | 236° |
| 2026-04-30 18:16 | 57.22475 | -109.87695 | 39637 ft | 472 kts | 236° |
| 2026-04-30 18:17 | 57.18352 | -109.97033 | 39629 ft | 472 kts | 236° |
| 2026-04-30 18:18 | 57.12063 | -110.10991 | 39639 ft | 472 kts | 235° |
| 2026-04-30 18:18 | 57.07790 | -110.20176 | 39642 ft | 472 kts | 234° |
| 2026-04-30 18:19 | 57.03515 | -110.29358 | 39646 ft | 472 kts | 235° |
| 2026-04-30 18:19 | 56.99249 | -110.38517 | 39646 ft | 472 kts | 235° |
| 2026-04-30 18:20 | 56.94979 | -110.47658 | 39645 ft | 471 kts | 235° |
| 2026-04-30 18:20 | 56.90703 | -110.56777 | 39650 ft | 471 kts | 234° |
| 2026-04-30 18:21 | 56.86419 | -110.65877 | 39664 ft | 471 kts | 234° |
| 2026-04-30 18:21 | 56.82138 | -110.74935 | 39661 ft | 471 kts | 234° |
| 2026-04-30 18:22 | 56.77848 | -110.83979 | 39658 ft | 471 kts | 234° |
| 2026-04-30 18:22 | 56.71404 | -110.97497 | 39648 ft | 471 kts | 234° |
| 2026-04-30 18:23 | 56.67126 | -111.06430 | 39641 ft | 472 kts | 234° |
| 2026-04-30 18:23 | 56.62798 | -111.15434 | 39642 ft | 473 kts | 234° |
| 2026-04-30 18:24 | 56.56244 | -111.28864 | 39643 ft | 473 kts | 233° |
| 2026-04-30 18:25 | 56.51874 | -111.37790 | 39642 ft | 472 kts | 233° |
| 2026-04-30 18:25 | 56.45348 | -111.51159 | 39659 ft | 472 kts | 234° |
| 2026-04-30 18:26 | 56.38844 | -111.64428 | 39663 ft | 472 kts | 233° |
| 2026-04-30 18:27 | 56.32296 | -111.77707 | 39654 ft | 472 kts | 233° |
| 2026-04-30 18:28 | 56.25746 | -111.90914 | 39667 ft | 471 kts | 233° |
| 2026-04-30 18:28 | 56.19171 | -112.04100 | 39671 ft | 473 kts | 233° |
| 2026-04-30 18:29 | 56.10340 | -112.21692 | 39660 ft | 473 kts | 232° |
| 2026-04-30 18:30 | 56.01471 | -112.39116 | 39662 ft | 473 kts | 232° |
| 2026-04-30 18:31 | 55.94806 | -112.52116 | 39657 ft | 473 kts | 232° |
| 2026-04-30 18:32 | 55.88152 | -112.65114 | 39657 ft | 473 kts | 232° |
| 2026-04-30 18:33 | 55.81517 | -112.78013 | 39655 ft | 473 kts | 232° |
| 2026-04-30 18:33 | 55.74829 | -112.90938 | 39660 ft | 475 kts | 232° |
| 2026-04-30 18:34 | 55.68106 | -113.03862 | 39650 ft | 475 kts | 231° |
| 2026-04-30 18:35 | 55.63615 | -113.12453 | 39660 ft | 475 kts | 231° |
| 2026-04-30 18:35 | 55.59121 | -113.21019 | 39667 ft | 475 kts | 231° |
| 2026-04-30 18:36 | 55.52375 | -113.33822 | 39671 ft | 475 kts | 231° |
| 2026-04-30 18:37 | 55.45582 | -113.46553 | 39661 ft | 474 kts | 231° |
| 2026-04-30 18:37 | 55.41083 | -113.54922 | 39680 ft | 473 kts | 231° |
| 2026-04-30 18:38 | 55.36575 | -113.63341 | 39679 ft | 473 kts | 231° |
| 2026-04-30 18:38 | 55.32066 | -113.71755 | 39685 ft | 473 kts | 231° |
| 2026-04-30 18:39 | 55.27542 | -113.80170 | 39685 ft | 474 kts | 231° |
| 2026-04-30 18:39 | 55.23009 | -113.88566 | 39693 ft | 473 kts | 230° |
| 2026-04-30 18:40 | 55.18476 | -113.96934 | 39698 ft | 473 kts | 230° |
| 2026-04-30 18:40 | 55.13944 | -114.05270 | 39703 ft | 473 kts | 230° |
| 2026-04-30 18:41 | 55.09407 | -114.13585 | 39704 ft | 473 kts | 230° |
| 2026-04-30 18:41 | 55.04862 | -114.21887 | 39678 ft | 473 kts | 230° |
| 2026-04-30 18:42 | 55.01083 | -114.28765 | 39699 ft | 472 kts | 230° |
| 2026-04-30 18:42 | 54.94270 | -114.41118 | 39699 ft | 471 kts | 230° |
| 2026-04-30 18:45 | 54.69088 | -114.86043 | 39687 ft | 472 kts | 229° |
| 2026-04-30 18:46 | 54.64538 | -114.94101 | 39688 ft | 472 kts | 229° |
| 2026-04-30 18:46 | 54.59952 | -115.02196 | 39680 ft | 471 kts | 229° |
| 2026-04-30 18:47 | 54.55372 | -115.10251 | 39688 ft | 470 kts | 229° |
| 2026-04-30 18:47 | 54.50790 | -115.18285 | 39693 ft | 470 kts | 229° |
| 2026-04-30 18:48 | 54.46199 | -115.26305 | 39699 ft | 470 kts | 229° |
| 2026-04-30 18:48 | 54.41611 | -115.34292 | 39700 ft | 470 kts | 228° |
| 2026-04-30 18:49 | 54.37014 | -115.42269 | 39693 ft | 470 kts | 228° |
| 2026-04-30 18:49 | 54.32394 | -115.50230 | 39695 ft | 470 kts | 227° |
| 2026-04-30 18:50 | 54.27752 | -115.58133 | 39700 ft | 470 kts | 228° |
| 2026-04-30 18:50 | 54.23148 | -115.65998 | 39691 ft | 470 kts | 228° |
| 2026-04-30 18:51 | 54.18523 | -115.73904 | 39669 ft | 470 kts | 227° |
| 2026-04-30 18:51 | 54.13282 | -115.80552 | 39714 ft | 474 kts | 208° |
| 2026-04-30 18:52 | 54.07145 | -115.84749 | 39720 ft | 477 kts | 201° |
| 2026-04-30 18:52 | 54.00858 | -115.88575 | 39722 ft | 477 kts | 202° |
| 2026-04-30 18:53 | 53.94642 | -115.92593 | 39727 ft | 479 kts | 203° |
| 2026-04-30 18:53 | 53.88483 | -115.96706 | 39722 ft | 479 kts | 203° |
| 2026-04-30 18:54 | 53.82284 | -116.00862 | 39733 ft | 478 kts | 203° |
| 2026-04-30 18:54 | 53.76105 | -116.04985 | 39734 ft | 477 kts | 203° |
| 2026-04-30 18:55 | 53.69931 | -116.09087 | 39740 ft | 477 kts | 203° |
| 2026-04-30 18:55 | 53.60632 | -116.15238 | 39739 ft | 480 kts | 203° |
| 2026-04-30 18:56 | 53.51304 | -116.21377 | 39748 ft | 480 kts | 203° |
| 2026-04-30 18:57 | 53.41978 | -116.27487 | 39756 ft | 480 kts | 203° |
| 2026-04-30 18:57 | 53.35798 | -116.31512 | 39750 ft | 480 kts | 202° |
| 2026-04-30 18:58 | 53.26421 | -116.37561 | 39742 ft | 482 kts | 202° |
| 2026-04-30 18:59 | 53.17027 | -116.43630 | 39749 ft | 482 kts | 202° |
| 2026-04-30 19:00 | 53.04542 | -116.51665 | 39755 ft | 480 kts | 202° |
| 2026-04-30 19:01 | 52.92079 | -116.59635 | 39755 ft | 480 kts | 202° |
| 2026-04-30 19:02 | 52.82725 | -116.65584 | 39757 ft | 480 kts | 202° |
| 2026-04-30 19:03 | 52.70326 | -116.73427 | 39798 ft | 478 kts | 202° |
| 2026-04-30 19:04 | 52.57847 | -116.81264 | 39821 ft | 480 kts | 202° |
| 2026-04-30 19:05 | 52.45351 | -116.89024 | 39853 ft | 478 kts | 202° |
| 2026-04-30 19:06 | 52.32890 | -116.96763 | 39880 ft | 480 kts | 202° |
| 2026-04-30 19:06 | 52.23517 | -117.02553 | 39893 ft | 480 kts | 202° |
| 2026-04-30 19:07 | 52.14144 | -117.08317 | 39888 ft | 479 kts | 202° |
| 2026-04-30 19:08 | 52.01672 | -117.15948 | 39900 ft | 480 kts | 202° |
| 2026-04-30 19:09 | 51.92331 | -117.21632 | 39882 ft | 480 kts | 202° |
| 2026-04-30 19:09 | 51.86077 | -117.25425 | 39882 ft | 480 kts | 202° |
| 2026-04-30 19:10 | 51.73611 | -117.33034 | 39870 ft | 478 kts | 206° |
| 2026-04-30 19:11 | 51.70708 | -117.35612 | 39862 ft | 476 kts | 217° |
| 2026-04-30 19:11 | 51.66051 | -117.43008 | 39858 ft | 469 kts | 236° |
| 2026-04-30 19:12 | 51.62427 | -117.51701 | 39854 ft | 469 kts | 239° |
| 2026-04-30 19:12 | 51.58758 | -117.60399 | 39849 ft | 468 kts | 237° |
| 2026-04-30 19:13 | 51.51103 | -117.77242 | 39868 ft | 468 kts | 236° |
| 2026-04-30 19:14 | 51.47221 | -117.85632 | 39863 ft | 468 kts | 236° |
| 2026-04-30 19:14 | 51.43340 | -117.94010 | 39848 ft | 468 kts | 236° |
| 2026-04-30 19:15 | 51.39459 | -118.02361 | 39857 ft | 466 kts | 236° |
| 2026-04-30 19:15 | 51.33652 | -118.14819 | 39850 ft | 465 kts | 236° |
| 2026-04-30 19:16 | 51.29777 | -118.23101 | 39834 ft | 465 kts | 236° |
| 2026-04-30 19:17 | 51.23958 | -118.35483 | 39830 ft | 464 kts | 235° |
| 2026-04-30 19:17 | 51.18119 | -118.47822 | 39826 ft | 466 kts | 235° |
| 2026-04-30 19:18 | 51.12219 | -118.60117 | 39821 ft | 465 kts | 235° |
| 2026-04-30 19:19 | 51.08303 | -118.68313 | 39813 ft | 465 kts | 235° |
| 2026-04-30 19:19 | 51.02470 | -118.80509 | 39816 ft | 464 kts | 235° |
| 2026-04-30 19:20 | 50.98557 | -118.88660 | 39816 ft | 464 kts | 235° |
| 2026-04-30 19:21 | 50.92681 | -119.00851 | 39809 ft | 464 kts | 235° |
| 2026-04-30 19:22 | 50.84822 | -119.17064 | 39805 ft | 464 kts | 234° |
| 2026-04-30 19:23 | 50.73008 | -119.41249 | 39796 ft | 461 kts | 234° |
| 2026-04-30 19:24 | 50.69086 | -119.49226 | 40125 ft | 460 kts | 234° |
| 2026-04-30 19:24 | 50.67106 | -119.53215 | 40214 ft | 463 kts | 234° |
| 2026-04-30 19:25 | 50.57136 | -119.73202 | 40228 ft | 465 kts | 234° |
| 2026-04-30 19:26 | 50.49170 | -119.89201 | 40228 ft | 464 kts | 234° |
| 2026-04-30 19:27 | 50.43179 | -120.01159 | 40231 ft | 464 kts | 234° |
| 2026-04-30 19:28 | 50.37875 | -120.11698 | 40226 ft | 461 kts | 233° |
| 2026-04-30 19:29 | 50.29909 | -120.27450 | 40228 ft | 461 kts | 233° |
| 2026-04-30 19:30 | 50.21952 | -120.43070 | 39101 ft | 455 kts | 233° |
| 2026-04-30 19:30 | 50.18012 | -120.50787 | 37934 ft | 455 kts | 233° |
| 2026-04-30 19:31 | 50.14023 | -120.58506 | 36863 ft | 460 kts | 232° |
| 2026-04-30 19:31 | 50.12004 | -120.62393 | 36351 ft | 462 kts | 232° |
| 2026-04-30 19:31 | 50.07950 | -120.70220 | 35302 ft | 465 kts | 232° |
| 2026-04-30 19:32 | 50.05919 | -120.74134 | 34776 ft | 465 kts | 232° |
| 2026-04-30 19:32 | 50.03883 | -120.78063 | 34200 ft | 467 kts | 232° |
| 2026-04-30 19:32 | 50.01844 | -120.81997 | 33588 ft | 470 kts | 232° |
| 2026-04-30 19:32 | 49.99778 | -120.85983 | 32994 ft | 475 kts | 232° |
| 2026-04-30 19:33 | 49.97698 | -120.89994 | 32403 ft | 477 kts | 232° |
| 2026-04-30 19:33 | 49.95614 | -120.94011 | 31828 ft | 479 kts | 232° |
| 2026-04-30 19:33 | 49.93551 | -120.97994 | 31250 ft | 480 kts | 233° |
| 2026-04-30 19:33 | 49.91596 | -121.02206 | 30661 ft | 481 kts | 237° |
| 2026-04-30 19:34 | 49.89813 | -121.06595 | 29921 ft | 481 kts | 239° |
| 2026-04-30 19:34 | 49.88128 | -121.11048 | 29185 ft | 477 kts | 239° |
| 2026-04-30 19:34 | 49.84867 | -121.19866 | 27796 ft | 466 kts | 239° |
| 2026-04-30 19:35 | 49.83253 | -121.24182 | 27130 ft | 460 kts | 239° |
| 2026-04-30 19:35 | 49.81654 | -121.28419 | 26472 ft | 454 kts | 238° |
| 2026-04-30 19:35 | 49.80056 | -121.32626 | 25842 ft | 449 kts | 238° |
| 2026-04-30 19:35 | 49.78481 | -121.36752 | 25204 ft | 444 kts | 238° |
| 2026-04-30 19:36 | 49.76911 | -121.40849 | 24579 ft | 440 kts | 238° |
| 2026-04-30 19:36 | 49.75358 | -121.44897 | 23950 ft | 436 kts | 238° |
| 2026-04-30 19:36 | 49.72285 | -121.52884 | 22598 ft | 428 kts | 237° |
| 2026-04-30 19:37 | 49.70771 | -121.56811 | 21975 ft | 423 kts | 237° |
| 2026-04-30 19:37 | 49.69272 | -121.60694 | 21367 ft | 419 kts | 237° |
| 2026-04-30 19:37 | 49.67787 | -121.64536 | 20770 ft | 414 kts | 237° |
| 2026-04-30 19:37 | 49.66315 | -121.68339 | 20187 ft | 411 kts | 236° |
| 2026-04-30 19:38 | 49.64851 | -121.72105 | 19617 ft | 407 kts | 236° |
| 2026-04-30 19:38 | 49.63404 | -121.75827 | 19036 ft | 403 kts | 236° |
| 2026-04-30 19:38 | 49.61973 | -121.79509 | 18452 ft | 399 kts | 236° |
| 2026-04-30 19:38 | 49.60553 | -121.83158 | 17824 ft | 395 kts | 236° |
| 2026-04-30 19:39 | 49.59148 | -121.86763 | 17235 ft | 391 kts | 236° |
| 2026-04-30 19:39 | 49.57752 | -121.90338 | 16666 ft | 387 kts | 236° |
| 2026-04-30 19:39 | 49.56370 | -121.93873 | 16109 ft | 384 kts | 236° |
| 2026-04-30 19:39 | 49.55000 | -121.97369 | 15544 ft | 380 kts | 236° |
| 2026-04-30 19:40 | 49.53640 | -122.00840 | 14992 ft | 376 kts | 236° |
| 2026-04-30 19:40 | 49.52302 | -122.04224 | 14450 ft | 373 kts | 236° |
| 2026-04-30 19:40 | 49.50936 | -122.07605 | 13891 ft | 370 kts | 236° |
| 2026-04-30 19:40 | 49.49581 | -122.10932 | 13346 ft | 365 kts | 236° |
| 2026-04-30 19:41 | 49.48237 | -122.14235 | 13028 ft | 363 kts | 236° |
| 2026-04-30 19:41 | 49.46922 | -122.17491 | 12733 ft | 350 kts | 237° |
| 2026-04-30 19:41 | 49.45693 | -122.20585 | 12590 ft | 328 kts | 237° |
| 2026-04-30 19:41 | 49.44547 | -122.23490 | 12461 ft | 309 kts | 237° |
| 2026-04-30 19:42 | 49.43460 | -122.26248 | 12334 ft | 293 kts | 237° |
| 2026-04-30 19:42 | 49.42431 | -122.28853 | 12222 ft | 278 kts | 237° |
| 2026-04-30 19:42 | 49.41451 | -122.31335 | 12106 ft | 268 kts | 236° |
| 2026-04-30 19:42 | 49.40470 | -122.33745 | 11993 ft | 266 kts | 233° |
| 2026-04-30 19:43 | 49.39333 | -122.35960 | 11944 ft | 263 kts | 228° |
| 2026-04-30 19:43 | 49.38132 | -122.38088 | 11876 ft | 263 kts | 227° |
| 2026-04-30 19:43 | 49.36921 | -122.40196 | 11811 ft | 262 kts | 226° |
| 2026-04-30 19:44 | 49.34466 | -122.44414 | 11138 ft | 268 kts | 226° |
| 2026-04-30 19:44 | 49.33220 | -122.46542 | 10656 ft | 269 kts | 226° |
| 2026-04-30 19:44 | 49.31982 | -122.48654 | 10174 ft | 271 kts | 227° |
| 2026-04-30 19:44 | 49.30718 | -122.50811 | 9627 ft | 273 kts | 227° |
| 2026-04-30 19:45 | 49.29446 | -122.52977 | 9103 ft | 274 kts | 227° |
| 2026-04-30 19:45 | 49.28171 | -122.55153 | 8580 ft | 274 kts | 227° |
| 2026-04-30 19:45 | 49.26891 | -122.57342 | 8127 ft | 273 kts | 227° |
| 2026-04-30 19:45 | 49.25648 | -122.59470 | 7678 ft | 272 kts | 227° |
| 2026-04-30 19:46 | 49.24389 | -122.61623 | 7221 ft | 271 kts | 227° |
| 2026-04-30 19:46 | 49.23156 | -122.63732 | 6762 ft | 258 kts | 227° |
| 2026-04-30 19:46 | 49.21985 | -122.65735 | 6334 ft | 248 kts | 227° |
| 2026-04-30 19:46 | 49.20910 | -122.67670 | 5957 ft | 228 kts | 232° |
| 2026-04-30 19:47 | 49.20066 | -122.69591 | 5600 ft | 207 kts | 236° |
| 2026-04-30 19:47 | 49.19567 | -122.70807 | 5405 ft | 194 kts | 237° |
| 2026-04-30 19:47 | 49.18626 | -122.73115 | 5029 ft | 191 kts | 236° |
| 2026-04-30 19:47 | 49.17927 | -122.74834 | 4713 ft | 189 kts | 236° |
| 2026-04-30 19:48 | 49.17233 | -122.76534 | 4433 ft | 189 kts | 236° |
| 2026-04-30 19:48 | 49.16551 | -122.78255 | 4168 ft | 190 kts | 240° |
| 2026-04-30 19:48 | 49.16201 | -122.80177 | 3900 ft | 191 kts | 270° |
| 2026-04-30 19:48 | 49.16319 | -122.82206 | 3676 ft | 192 kts | 275° |
| 2026-04-30 19:49 | 49.16451 | -122.84241 | 3570 ft | 193 kts | 275° |
| 2026-04-30 19:49 | 49.16850 | -122.88297 | 3317 ft | 193 kts | 279° |
| 2026-04-30 19:49 | 49.17073 | -122.90323 | 3190 ft | 193 kts | 279° |
| 2026-04-30 19:50 | 49.17299 | -122.92340 | 3054 ft | 191 kts | 279° |
| 2026-04-30 19:50 | 49.17523 | -122.94322 | 2810 ft | 183 kts | 280° |
| 2026-04-30 19:50 | 49.17733 | -122.96157 | 2571 ft | 171 kts | 280° |
| 2026-04-30 19:50 | 49.17942 | -122.97923 | 2372 ft | 168 kts | 281° |
| 2026-04-30 19:51 | 49.18158 | -122.99654 | 2167 ft | 167 kts | 281° |
| 2026-04-30 19:51 | 49.18362 | -123.01362 | 1917 ft | 155 kts | 279° |
| 2026-04-30 19:51 | 49.18534 | -123.02935 | 1723 ft | 147 kts | 279° |
| 2026-04-30 19:51 | 49.18705 | -123.04468 | 1540 ft | 146 kts | 279° |
| 2026-04-30 19:52 | 49.18877 | -123.05986 | 1356 ft | 144 kts | 279° |
| 2026-04-30 19:52 | 49.19051 | -123.07485 | 1167 ft | 143 kts | 280° |
| 2026-04-30 19:52 | 49.19238 | -123.08970 | 974 ft | 142 kts | 279° |
| 2026-04-30 19:52 | 49.19413 | -123.10454 | 750 ft | 141 kts | 280° |
| 2026-04-30 19:53 | 49.19577 | -123.11917 | 600 ft | 137 kts | 279° |
| 2026-04-30 19:53 | 49.19748 | -123.13360 | 417 ft | 138 kts | 280° |
| 2026-04-30 19:53 | 49.19913 | -123.14787 | 239 ft | 136 kts | 279° |
| 2026-04-30 19:53 | 49.20077 | -123.16225 | 55 ft | 138 kts | 280° |
| 2026-04-30 19:54 | 49.20223 | -123.17498 | 32 ft | 99 kts | 280° |
| 2026-04-30 19:54 | 49.20309 | -123.18229 | 32 ft | 41 kts | 280° |
| 2026-04-30 19:54 | 49.20337 | -123.18494 | 32 ft | 28 kts | 279° |
| 2026-04-30 19:54 | 49.20377 | -123.18844 | 32 ft | 33 kts | 280° |
| 2026-04-30 19:55 | 49.20389 | -123.19151 | 31 ft | 24 kts | 262° |
| 2026-04-30 19:55 | 49.20359 | -123.19333 | 30 ft | 20 kts | 252° |
| 2026-04-30 19:55 | 49.20312 | -123.19537 | 32 ft | 17 kts | 249° |
| 2026-04-30 19:55 | 49.20267 | -123.19609 | 31 ft | 6 kts | 180° |
| 2026-04-30 19:56 | 49.20246 | -123.19561 | 32 ft | 10 kts | 107° |
| 2026-04-30 19:56 | 49.20230 | -123.19446 | 31 ft | 11 kts | 100° |
| 2026-04-30 19:56 | 49.20218 | -123.19336 | 32 ft | 10 kts | 99° |
| 2026-04-30 19:56 | 49.20206 | -123.19229 | 32 ft | 10 kts | 100° |
| 2026-04-30 19:57 | 49.20193 | -123.19123 | 32 ft | 10 kts | 100° |
| 2026-04-30 19:57 | 49.20178 | -123.18985 | 32 ft | 17 kts | 99° |
| 2026-04-30 19:57 | 49.20154 | -123.18778 | 32 ft | 20 kts | 100° |
| 2026-04-30 19:57 | 49.20138 | -123.18643 | 32 ft | 11 kts | 100° |
| 2026-04-30 19:58 | 49.20114 | -123.18543 | 32 ft | 9 kts | 134° |
| 2026-04-30 19:58 | 49.20062 | -123.18518 | 32 ft | 8 kts | 177° |
| 2026-04-30 19:58 | 49.20010 | -123.18525 | 30 ft | 8 kts | 187° |
| 2026-04-30 19:58 | 49.19957 | -123.18538 | 32 ft | 8 kts | 190° |
| 2026-04-30 19:59 | 49.19904 | -123.18553 | 31 ft | 8 kts | 190° |
| 2026-04-30 19:59 | 49.19850 | -123.18567 | 30 ft | 8 kts | 189° |
| 2026-04-30 19:59 | 49.19779 | -123.18506 | 31 ft | 5 kts | 117° |
| 2026-04-30 20:00 | 49.19768 | -123.18441 | 32 ft | 10 kts | 102° |
| 2026-04-30 20:00 | 49.19754 | -123.18320 | 30 ft | 12 kts | 100° |
| 2026-04-30 20:00 | 49.19736 | -123.18210 | 30 ft | 6 kts | 111° |
| 2026-04-30 20:00 | 49.19730 | -123.18163 | 32 ft | 3 kts | 85° |
| 2026-04-30 20:01 | 49.19762 | -123.18099 | 32 ft | 2 kts | 42° |
| 2026-04-30 20:01 | 49.19775 | -123.18081 | 31 ft | 1 kts | 41° |
| 2026-04-30 20:01 | 49.19776 | -123.18080 | 31 ft | 0 kts | 41° |